sensor_id;sensor_type;location;lat;lon;timestamp;P1;durP1;ratioP1;P2;durP2;ratioP2
2175;SDS011;1094;49.902;10.876;2022-10-28T00:00:48;32.33;;;18.00;;
2175;SDS011;1094;49.902;10.876;2022-10-28T00:03:14;27.17;;;16.33;;
2175;SDS011;1094;49.902;10.876;2022-10-28T00:05:41;29.43;;;17.60;;
2175;SDS011;1094;49.902;10.876;2022-10-28T00:08:07;28.93;;;16.00;;
2175;SDS011;1094;49.902;10.876;2022-10-28T00:10:32;26.43;;;16.70;;
2175;SDS011;1094;49.902;10.876;2022-10-28T00:12:58;23.40;;;16.27;;
2175;SDS011;1094;49.902;10.876;2022-10-28T00:15:24;26.33;;;16.57;;
2175;SDS011;1094;49.902;10.876;2022-10-28T00:17:51;25.23;;;15.60;;
2175;SDS011;1094;49.902;10.876;2022-10-28T00:20:17;30.80;;;18.53;;
2175;SDS011;1094;49.902;10.876;2022-10-28T00:22:43;28.83;;;17.30;;
2175;SDS011;1094;49.902;10.876;2022-10-28T00:25:09;21.73;;;17.03;;
2175;SDS011;1094;49.902;10.876;2022-10-28T00:27:35;22.10;;;15.97;;
2175;SDS011;1094;49.902;10.876;2022-10-28T00:30:01;23.37;;;15.80;;
2175;SDS011;1094;49.902;10.876;2022-10-28T00:32:27;27.07;;;17.23;;
2175;SDS011;1094;49.902;10.876;2022-10-28T00:34:53;28.20;;;16.50;;
2175;SDS011;1094;49.902;10.876;2022-10-28T00:37:19;25.97;;;16.70;;
2175;SDS011;1094;49.902;10.876;2022-10-28T00:39:45;22.30;;;15.97;;
2175;SDS011;1094;49.902;10.876;2022-10-28T00:42:11;32.13;;;15.97;;
2175;SDS011;1094;49.902;10.876;2022-10-28T00:47:14;25.13;;;15.43;;
2175;SDS011;1094;49.902;10.876;2022-10-28T00:49:42;28.53;;;16.47;;
2175;SDS011;1094;49.902;10.876;2022-10-28T00:52:12;19.90;;;15.50;;
2175;SDS011;1094;49.902;10.876;2022-10-28T00:54:40;23.30;;;15.23;;
2175;SDS011;1094;49.902;10.876;2022-10-28T00:57:08;23.17;;;15.23;;
2175;SDS011;1094;49.902;10.876;2022-10-28T00:59:36;22.57;;;15.93;;
2175;SDS011;1094;49.902;10.876;2022-10-28T01:02:03;20.10;;;14.90;;
2175;SDS011;1094;49.902;10.876;2022-10-28T01:04:30;23.53;;;14.70;;
2175;SDS011;1094;49.902;10.876;2022-10-28T01:06:56;27.00;;;17.00;;
2175;SDS011;1094;49.902;10.876;2022-10-28T01:09:23;19.70;;;14.60;;
2175;SDS011;1094;49.902;10.876;2022-10-28T01:16:46;22.87;;;13.20;;
2175;SDS011;1094;49.902;10.876;2022-10-28T01:24:34;22.40;;;16.87;;
2175;SDS011;1094;49.902;10.876;2022-10-28T01:27:11;22.50;;;15.10;;
2175;SDS011;1094;49.902;10.876;2022-10-28T01:39:29;26.23;;;14.90;;
2175;SDS011;1094;49.902;10.876;2022-10-28T01:44:27;24.27;;;15.37;;
2175;SDS011;1094;49.902;10.876;2022-10-28T01:49:50;18.40;;;15.10;;
2175;SDS011;1094;49.902;10.876;2022-10-28T01:52:20;21.00;;;14.80;;
2175;SDS011;1094;49.902;10.876;2022-10-28T01:54:47;24.83;;;16.93;;
2175;SDS011;1094;49.902;10.876;2022-10-28T01:57:15;22.00;;;14.03;;
2175;SDS011;1094;49.902;10.876;2022-10-28T01:59:42;24.33;;;15.70;;
2175;SDS011;1094;49.902;10.876;2022-10-28T02:02:10;26.17;;;17.20;;
2175;SDS011;1094;49.902;10.876;2022-10-28T02:04:35;20.70;;;14.93;;
2175;SDS011;1094;49.902;10.876;2022-10-28T02:07:01;25.47;;;16.40;;
2175;SDS011;1094;49.902;10.876;2022-10-28T02:09:41;23.23;;;16.87;;
2175;SDS011;1094;49.902;10.876;2022-10-28T02:12:15;22.40;;;15.47;;
2175;SDS011;1094;49.902;10.876;2022-10-28T02:17:30;22.97;;;16.03;;
2175;SDS011;1094;49.902;10.876;2022-10-28T02:27:48;24.43;;;16.60;;
2175;SDS011;1094;49.902;10.876;2022-10-28T02:30:21;19.90;;;15.57;;
2175;SDS011;1094;49.902;10.876;2022-10-28T02:32:51;24.73;;;15.90;;
2175;SDS011;1094;49.902;10.876;2022-10-28T02:35:26;20.00;;;15.03;;
2175;SDS011;1094;49.902;10.876;2022-10-28T02:37:55;18.27;;;14.17;;
2175;SDS011;1094;49.902;10.876;2022-10-28T02:40:23;18.77;;;13.47;;
2175;SDS011;1094;49.902;10.876;2022-10-28T02:42:51;21.70;;;15.10;;
2175;SDS011;1094;49.902;10.876;2022-10-28T02:45:23;22.80;;;14.37;;
2175;SDS011;1094;49.902;10.876;2022-10-28T02:47:50;21.27;;;14.90;;
2175;SDS011;1094;49.902;10.876;2022-10-28T02:50:19;20.50;;;14.70;;
2175;SDS011;1094;49.902;10.876;2022-10-28T02:52:47;27.00;;;17.00;;
2175;SDS011;1094;49.902;10.876;2022-10-28T02:55:13;20.50;;;13.73;;
2175;SDS011;1094;49.902;10.876;2022-10-28T02:57:41;22.27;;;14.63;;
2175;SDS011;1094;49.902;10.876;2022-10-28T03:00:09;22.67;;;14.67;;
2175;SDS011;1094;49.902;10.876;2022-10-28T03:02:35;20.50;;;14.60;;
2175;SDS011;1094;49.902;10.876;2022-10-28T03:05:05;26.87;;;15.00;;
2175;SDS011;1094;49.902;10.876;2022-10-28T03:07:31;21.60;;;14.93;;
2175;SDS011;1094;49.902;10.876;2022-10-28T03:09:57;18.00;;;14.20;;
2175;SDS011;1094;49.902;10.876;2022-10-28T03:12:23;26.57;;;15.90;;
2175;SDS011;1094;49.902;10.876;2022-10-28T03:14:49;19.20;;;14.30;;
2175;SDS011;1094;49.902;10.876;2022-10-28T03:17:15;17.20;;;13.63;;
2175;SDS011;1094;49.902;10.876;2022-10-28T03:19:40;19.97;;;13.80;;
2175;SDS011;1094;49.902;10.876;2022-10-28T03:22:06;20.43;;;14.10;;
2175;SDS011;1094;49.902;10.876;2022-10-28T03:24:32;17.80;;;13.80;;
2175;SDS011;1094;49.902;10.876;2022-10-28T03:26:58;19.60;;;14.20;;
2175;SDS011;1094;49.902;10.876;2022-10-28T03:29:24;23.97;;;15.70;;
2175;SDS011;1094;49.902;10.876;2022-10-28T03:31:50;27.73;;;17.33;;
2175;SDS011;1094;49.902;10.876;2022-10-28T03:34:16;22.80;;;17.03;;
2175;SDS011;1094;49.902;10.876;2022-10-28T03:36:42;21.10;;;15.40;;
2175;SDS011;1094;49.902;10.876;2022-10-28T03:39:08;26.90;;;17.00;;
2175;SDS011;1094;49.902;10.876;2022-10-28T03:41:34;22.73;;;15.60;;
2175;SDS011;1094;49.902;10.876;2022-10-28T03:44:00;25.37;;;16.17;;
2175;SDS011;1094;49.902;10.876;2022-10-28T03:46:26;23.83;;;16.37;;
2175;SDS011;1094;49.902;10.876;2022-10-28T03:48:52;21.30;;;16.17;;
2175;SDS011;1094;49.902;10.876;2022-10-28T03:51:18;24.23;;;16.87;;
2175;SDS011;1094;49.902;10.876;2022-10-28T03:53:44;24.23;;;16.63;;
2175;SDS011;1094;49.902;10.876;2022-10-28T03:56:10;19.27;;;16.57;;
2175;SDS011;1094;49.902;10.876;2022-10-28T03:58:36;23.37;;;15.70;;
2175;SDS011;1094;49.902;10.876;2022-10-28T04:01:02;21.37;;;15.90;;
2175;SDS011;1094;49.902;10.876;2022-10-28T04:03:28;32.47;;;18.83;;
2175;SDS011;1094;49.902;10.876;2022-10-28T04:05:54;19.70;;;15.37;;
2175;SDS011;1094;49.902;10.876;2022-10-28T04:08:20;19.07;;;15.37;;
2175;SDS011;1094;49.902;10.876;2022-10-28T04:10:47;22.33;;;16.13;;
2175;SDS011;1094;49.902;10.876;2022-10-28T04:13:13;24.40;;;16.37;;
2175;SDS011;1094;49.902;10.876;2022-10-28T04:15:39;21.13;;;15.80;;
2175;SDS011;1094;49.902;10.876;2022-10-28T04:18:05;22.73;;;15.73;;
2175;SDS011;1094;49.902;10.876;2022-10-28T04:20:31;21.63;;;15.13;;
2175;SDS011;1094;49.902;10.876;2022-10-28T04:22:58;20.00;;;14.53;;
2175;SDS011;1094;49.902;10.876;2022-10-28T04:25:24;18.47;;;14.47;;
2175;SDS011;1094;49.902;10.876;2022-10-28T04:27:50;17.40;;;14.03;;
2175;SDS011;1094;49.902;10.876;2022-10-28T04:30:16;22.57;;;16.03;;
2175;SDS011;1094;49.902;10.876;2022-10-28T04:32:43;22.60;;;13.90;;
2175;SDS011;1094;49.902;10.876;2022-10-28T04:35:09;20.23;;;14.30;;
2175;SDS011;1094;49.902;10.876;2022-10-28T04:37:36;25.00;;;15.40;;
2175;SDS011;1094;49.902;10.876;2022-10-28T04:40:02;21.43;;;14.13;;
2175;SDS011;1094;49.902;10.876;2022-10-28T04:42:28;19.63;;;14.70;;
2175;SDS011;1094;49.902;10.876;2022-10-28T04:44:54;19.47;;;14.53;;
2175;SDS011;1094;49.902;10.876;2022-10-28T04:47:20;20.07;;;14.80;;
2175;SDS011;1094;49.902;10.876;2022-10-28T04:49:46;22.90;;;14.57;;
2175;SDS011;1094;49.902;10.876;2022-10-28T04:52:12;20.13;;;14.73;;
2175;SDS011;1094;49.902;10.876;2022-10-28T04:54:38;23.07;;;16.40;;
2175;SDS011;1094;49.902;10.876;2022-10-28T04:57:04;18.77;;;14.30;;
2175;SDS011;1094;49.902;10.876;2022-10-28T04:59:30;21.43;;;15.00;;
2175;SDS011;1094;49.902;10.876;2022-10-28T05:01:56;24.37;;;15.27;;
2175;SDS011;1094;49.902;10.876;2022-10-28T05:04:22;22.87;;;14.87;;
2175;SDS011;1094;49.902;10.876;2022-10-28T05:06:48;18.60;;;14.07;;
2175;SDS011;1094;49.902;10.876;2022-10-28T05:09:14;25.07;;;15.13;;
2175;SDS011;1094;49.902;10.876;2022-10-28T05:11:40;22.17;;;15.23;;
2175;SDS011;1094;49.902;10.876;2022-10-28T05:14:06;21.40;;;15.20;;
2175;SDS011;1094;49.902;10.876;2022-10-28T05:16:31;19.60;;;15.40;;
2175;SDS011;1094;49.902;10.876;2022-10-28T05:18:57;24.67;;;15.13;;
2175;SDS011;1094;49.902;10.876;2022-10-28T05:21:23;22.20;;;15.77;;
2175;SDS011;1094;49.902;10.876;2022-10-28T05:23:49;19.67;;;14.40;;
2175;SDS011;1094;49.902;10.876;2022-10-28T05:26:15;19.10;;;15.17;;
2175;SDS011;1094;49.902;10.876;2022-10-28T05:28:41;19.77;;;15.87;;
2175;SDS011;1094;49.902;10.876;2022-10-28T05:31:08;24.43;;;14.83;;
2175;SDS011;1094;49.902;10.876;2022-10-28T05:33:34;22.73;;;16.20;;
2175;SDS011;1094;49.902;10.876;2022-10-28T05:36:00;25.23;;;18.10;;
2175;SDS011;1094;49.902;10.876;2022-10-28T05:38:26;25.60;;;17.60;;
2175;SDS011;1094;49.902;10.876;2022-10-28T05:40:52;23.13;;;16.27;;
2175;SDS011;1094;49.902;10.876;2022-10-28T05:43:18;19.00;;;16.00;;
2175;SDS011;1094;49.902;10.876;2022-10-28T05:45:50;20.47;;;15.63;;
2175;SDS011;1094;49.902;10.876;2022-10-28T05:48:17;22.60;;;14.90;;
2175;SDS011;1094;49.902;10.876;2022-10-28T05:50:42;23.67;;;16.30;;
2175;SDS011;1094;49.902;10.876;2022-10-28T05:53:08;20.23;;;14.80;;
2175;SDS011;1094;49.902;10.876;2022-10-28T05:55:34;19.77;;;14.23;;
2175;SDS011;1094;49.902;10.876;2022-10-28T05:58:00;19.30;;;14.97;;
2175;SDS011;1094;49.902;10.876;2022-10-28T06:00:27;17.20;;;15.30;;
2175;SDS011;1094;49.902;10.876;2022-10-28T06:03:00;26.43;;;16.17;;
2175;SDS011;1094;49.902;10.876;2022-10-28T06:05:26;24.70;;;16.23;;
2175;SDS011;1094;49.902;10.876;2022-10-28T06:07:53;20.87;;;16.10;;
2175;SDS011;1094;49.902;10.876;2022-10-28T06:10:18;20.53;;;14.87;;
2175;SDS011;1094;49.902;10.876;2022-10-28T06:12:44;24.50;;;17.60;;
2175;SDS011;1094;49.902;10.876;2022-10-28T06:15:10;19.00;;;15.73;;
2175;SDS011;1094;49.902;10.876;2022-10-28T06:17:36;20.23;;;15.07;;
2175;SDS011;1094;49.902;10.876;2022-10-28T06:20:02;20.63;;;15.93;;
2175;SDS011;1094;49.902;10.876;2022-10-28T06:22:29;23.33;;;15.73;;
2175;SDS011;1094;49.902;10.876;2022-10-28T06:24:55;22.40;;;14.93;;
2175;SDS011;1094;49.902;10.876;2022-10-28T06:27:20;23.50;;;15.87;;
2175;SDS011;1094;49.902;10.876;2022-10-28T06:29:46;17.47;;;15.60;;
2175;SDS011;1094;49.902;10.876;2022-10-28T06:32:12;23.00;;;16.47;;
2175;SDS011;1094;49.902;10.876;2022-10-28T06:34:38;21.87;;;15.00;;
2175;SDS011;1094;49.902;10.876;2022-10-28T06:37:04;23.80;;;16.33;;
2175;SDS011;1094;49.902;10.876;2022-10-28T06:39:31;20.47;;;15.23;;
2175;SDS011;1094;49.902;10.876;2022-10-28T06:41:57;23.47;;;14.90;;
2175;SDS011;1094;49.902;10.876;2022-10-28T06:44:23;23.53;;;15.70;;
2175;SDS011;1094;49.902;10.876;2022-10-28T06:46:49;19.40;;;15.10;;
2175;SDS011;1094;49.902;10.876;2022-10-28T06:49:15;21.13;;;14.97;;
2175;SDS011;1094;49.902;10.876;2022-10-28T06:51:41;25.30;;;14.77;;
2175;SDS011;1094;49.902;10.876;2022-10-28T06:54:07;22.17;;;14.90;;
2175;SDS011;1094;49.902;10.876;2022-10-28T06:56:33;23.63;;;16.77;;
2175;SDS011;1094;49.902;10.876;2022-10-28T06:58:59;26.20;;;18.10;;
2175;SDS011;1094;49.902;10.876;2022-10-28T07:01:25;23.40;;;14.20;;
2175;SDS011;1094;49.902;10.876;2022-10-28T07:03:51;23.73;;;15.23;;
2175;SDS011;1094;49.902;10.876;2022-10-28T07:06:17;24.90;;;14.80;;
2175;SDS011;1094;49.902;10.876;2022-10-28T07:08:43;20.27;;;15.10;;
2175;SDS011;1094;49.902;10.876;2022-10-28T07:11:09;22.70;;;15.27;;
2175;SDS011;1094;49.902;10.876;2022-10-28T07:13:34;27.70;;;14.43;;
2175;SDS011;1094;49.902;10.876;2022-10-28T07:16:00;19.20;;;14.60;;
2175;SDS011;1094;49.902;10.876;2022-10-28T07:18:27;17.13;;;12.73;;
2175;SDS011;1094;49.902;10.876;2022-10-28T07:20:57;14.97;;;11.73;;
2175;SDS011;1094;49.902;10.876;2022-10-28T07:23:23;13.70;;;11.70;;
2175;SDS011;1094;49.902;10.876;2022-10-28T07:25:50;15.70;;;11.23;;
2175;SDS011;1094;49.902;10.876;2022-10-28T07:28:17;14.10;;;10.50;;
2175;SDS011;1094;49.902;10.876;2022-10-28T07:30:43;14.77;;;10.20;;
2175;SDS011;1094;49.902;10.876;2022-10-28T07:33:09;15.03;;;10.70;;
2175;SDS011;1094;49.902;10.876;2022-10-28T07:35:34;12.83;;;10.20;;
2175;SDS011;1094;49.902;10.876;2022-10-28T07:38:01;16.67;;;11.67;;
2175;SDS011;1094;49.902;10.876;2022-10-28T07:40:26;16.83;;;10.73;;
2175;SDS011;1094;49.902;10.876;2022-10-28T07:42:52;16.50;;;11.07;;
2175;SDS011;1094;49.902;10.876;2022-10-28T07:45:19;20.80;;;12.17;;
2175;SDS011;1094;49.902;10.876;2022-10-28T07:47:45;14.83;;;10.17;;
2175;SDS011;1094;49.902;10.876;2022-10-28T07:50:11;16.43;;;10.20;;
2175;SDS011;1094;49.902;10.876;2022-10-28T07:52:37;12.77;;;10.20;;
2175;SDS011;1094;49.902;10.876;2022-10-28T07:55:04;16.03;;;9.67;;
2175;SDS011;1094;49.902;10.876;2022-10-28T07:57:30;13.80;;;8.50;;
2175;SDS011;1094;49.902;10.876;2022-10-28T07:59:56;17.97;;;8.93;;
2175;SDS011;1094;49.902;10.876;2022-10-28T08:02:23;12.53;;;8.90;;
2175;SDS011;1094;49.902;10.876;2022-10-28T08:04:49;18.83;;;10.13;;
2175;SDS011;1094;49.902;10.876;2022-10-28T08:07:15;13.33;;;7.67;;
2175;SDS011;1094;49.902;10.876;2022-10-28T08:09:41;12.77;;;8.70;;
2175;SDS011;1094;49.902;10.876;2022-10-28T08:12:13;10.43;;;7.40;;
2175;SDS011;1094;49.902;10.876;2022-10-28T08:14:40;18.97;;;7.90;;
2175;SDS011;1094;49.902;10.876;2022-10-28T08:17:06;16.57;;;8.20;;
2175;SDS011;1094;49.902;10.876;2022-10-28T08:19:32;13.20;;;6.37;;
2175;SDS011;1094;49.902;10.876;2022-10-28T08:21:58;8.53;;;6.10;;
2175;SDS011;1094;49.902;10.876;2022-10-28T08:24:24;13.70;;;5.60;;
2175;SDS011;1094;49.902;10.876;2022-10-28T08:26:50;15.03;;;6.00;;
2175;SDS011;1094;49.902;10.876;2022-10-28T08:29:16;13.10;;;5.40;;
2175;SDS011;1094;49.902;10.876;2022-10-28T08:31:42;10.73;;;4.73;;
2175;SDS011;1094;49.902;10.876;2022-10-28T08:34:08;8.13;;;4.83;;
2175;SDS011;1094;49.902;10.876;2022-10-28T08:36:34;8.43;;;5.00;;
2175;SDS011;1094;49.902;10.876;2022-10-28T08:39:00;10.93;;;4.40;;
2175;SDS011;1094;49.902;10.876;2022-10-28T08:41:28;8.67;;;5.50;;
2175;SDS011;1094;49.902;10.876;2022-10-28T08:43:59;8.40;;;4.57;;
2175;SDS011;1094;49.902;10.876;2022-10-28T08:49:02;9.50;;;4.70;;
2175;SDS011;1094;49.902;10.876;2022-10-28T08:54:14;9.20;;;4.87;;
2175;SDS011;1094;49.902;10.876;2022-10-28T08:56:42;5.30;;;4.30;;
2175;SDS011;1094;49.902;10.876;2022-10-28T08:59:18;7.97;;;4.90;;
2175;SDS011;1094;49.902;10.876;2022-10-28T09:01:47;8.17;;;4.70;;
2175;SDS011;1094;49.902;10.876;2022-10-28T09:04:28;10.53;;;5.17;;
2175;SDS011;1094;49.902;10.876;2022-10-28T09:06:57;10.10;;;5.27;;
2175;SDS011;1094;49.902;10.876;2022-10-28T09:09:23;5.10;;;3.83;;
2175;SDS011;1094;49.902;10.876;2022-10-28T09:11:55;12.00;;;5.40;;
2175;SDS011;1094;49.902;10.876;2022-10-28T09:22:18;6.77;;;3.97;;
2175;SDS011;1094;49.902;10.876;2022-10-28T09:32:29;6.27;;;4.40;;
2175;SDS011;1094;49.902;10.876;2022-10-28T09:35:05;6.70;;;4.10;;
2175;SDS011;1094;49.902;10.876;2022-10-28T09:37:37;9.20;;;4.17;;
2175;SDS011;1094;49.902;10.876;2022-10-28T09:40:16;6.57;;;4.20;;
2175;SDS011;1094;49.902;10.876;2022-10-28T09:42:56;7.20;;;4.30;;
2175;SDS011;1094;49.902;10.876;2022-10-28T09:45:26;6.47;;;4.00;;
2175;SDS011;1094;49.902;10.876;2022-10-28T09:48:00;7.37;;;3.90;;
2175;SDS011;1094;49.902;10.876;2022-10-28T09:50:28;10.13;;;4.00;;
2175;SDS011;1094;49.902;10.876;2022-10-28T09:52:58;7.33;;;4.50;;
2175;SDS011;1094;49.902;10.876;2022-10-28T09:55:25;5.43;;;4.20;;
2175;SDS011;1094;49.902;10.876;2022-10-28T09:57:51;6.07;;;4.30;;
2175;SDS011;1094;49.902;10.876;2022-10-28T10:00:17;7.37;;;4.47;;
2175;SDS011;1094;49.902;10.876;2022-10-28T10:02:43;11.27;;;5.03;;
2175;SDS011;1094;49.902;10.876;2022-10-28T10:05:13;6.70;;;4.87;;
2175;SDS011;1094;49.902;10.876;2022-10-28T10:08:02;14.50;;;4.73;;
2175;SDS011;1094;49.902;10.876;2022-10-28T10:10:41;6.70;;;4.90;;
2175;SDS011;1094;49.902;10.876;2022-10-28T10:13:11;6.03;;;4.27;;
2175;SDS011;1094;49.902;10.876;2022-10-28T10:15:44;6.57;;;4.70;;
2175;SDS011;1094;49.902;10.876;2022-10-28T10:18:12;7.07;;;4.67;;
2175;SDS011;1094;49.902;10.876;2022-10-28T10:23:22;5.23;;;4.00;;
2175;SDS011;1094;49.902;10.876;2022-10-28T10:25:53;6.67;;;4.27;;
2175;SDS011;1094;49.902;10.876;2022-10-28T10:28:19;8.43;;;4.17;;
2175;SDS011;1094;49.902;10.876;2022-10-28T10:30:50;11.07;;;5.37;;
2175;SDS011;1094;49.902;10.876;2022-10-28T10:33:18;9.23;;;4.70;;
2175;SDS011;1094;49.902;10.876;2022-10-28T10:35:51;9.30;;;5.07;;
2175;SDS011;1094;49.902;10.876;2022-10-28T10:38:17;7.27;;;4.30;;
2175;SDS011;1094;49.902;10.876;2022-10-28T10:40:47;5.33;;;4.30;;
2175;SDS011;1094;49.902;10.876;2022-10-28T10:45:52;7.93;;;4.30;;
2175;SDS011;1094;49.902;10.876;2022-10-28T10:48:24;9.70;;;4.20;;
2175;SDS011;1094;49.902;10.876;2022-10-28T10:50:50;6.40;;;3.87;;
2175;SDS011;1094;49.902;10.876;2022-10-28T10:53:32;8.83;;;4.00;;
2175;SDS011;1094;49.902;10.876;2022-10-28T10:55:59;8.60;;;4.23;;
2175;SDS011;1094;49.902;10.876;2022-10-28T10:58:27;5.70;;;4.33;;
2175;SDS011;1094;49.902;10.876;2022-10-28T11:00:55;11.43;;;5.03;;
2175;SDS011;1094;49.902;10.876;2022-10-28T11:03:23;7.90;;;3.80;;
2175;SDS011;1094;49.902;10.876;2022-10-28T11:05:54;10.20;;;4.70;;
2175;SDS011;1094;49.902;10.876;2022-10-28T11:08:41;6.10;;;3.90;;
2175;SDS011;1094;49.902;10.876;2022-10-28T11:11:50;9.40;;;4.03;;
2175;SDS011;1094;49.902;10.876;2022-10-28T11:16:29;13.93;;;5.00;;
2175;SDS011;1094;49.902;10.876;2022-10-28T11:18:55;6.37;;;3.57;;
2175;SDS011;1094;49.902;10.876;2022-10-28T11:26:55;10.03;;;4.17;;
2175;SDS011;1094;49.902;10.876;2022-10-28T11:29:25;7.80;;;4.30;;
2175;SDS011;1094;49.902;10.876;2022-10-28T11:36:52;5.70;;;3.20;;
2175;SDS011;1094;49.902;10.876;2022-10-28T11:39:33;6.70;;;3.00;;
2175;SDS011;1094;49.902;10.876;2022-10-28T11:48:00;8.17;;;3.70;;
2175;SDS011;1094;49.902;10.876;2022-10-28T11:55:33;6.10;;;4.00;;
2175;SDS011;1094;49.902;10.876;2022-10-28T12:01:30;6.53;;;3.67;;
2175;SDS011;1094;49.902;10.876;2022-10-28T12:16:42;6.83;;;3.40;;
2175;SDS011;1094;49.902;10.876;2022-10-28T12:19:12;11.13;;;3.57;;
2175;SDS011;1094;49.902;10.876;2022-10-28T12:21:42;7.83;;;4.00;;
2175;SDS011;1094;49.902;10.876;2022-10-28T12:24:14;11.03;;;4.50;;
2175;SDS011;1094;49.902;10.876;2022-10-28T12:29:09;9.20;;;3.37;;
2175;SDS011;1094;49.902;10.876;2022-10-28T12:31:40;8.27;;;3.27;;
2175;SDS011;1094;49.902;10.876;2022-10-28T12:34:11;9.47;;;4.10;;
2175;SDS011;1094;49.902;10.876;2022-10-28T12:36:40;6.03;;;3.60;;
2175;SDS011;1094;49.902;10.876;2022-10-28T12:39:13;9.30;;;4.10;;
2175;SDS011;1094;49.902;10.876;2022-10-28T12:44:10;12.93;;;4.87;;
2175;SDS011;1094;49.902;10.876;2022-10-28T12:49:09;4.53;;;3.20;;
2175;SDS011;1094;49.902;10.876;2022-10-28T12:51:40;4.87;;;3.17;;
2175;SDS011;1094;49.902;10.876;2022-10-28T12:56:39;7.47;;;3.10;;
2175;SDS011;1094;49.902;10.876;2022-10-28T13:01:58;4.50;;;3.40;;
2175;SDS011;1094;49.902;10.876;2022-10-28T13:04:26;5.67;;;2.80;;
2175;SDS011;1094;49.902;10.876;2022-10-28T13:20:18;10.17;;;3.80;;
2175;SDS011;1094;49.902;10.876;2022-10-28T13:22:48;6.43;;;3.43;;
2175;SDS011;1094;49.902;10.876;2022-10-28T13:27:46;6.40;;;2.93;;
2175;SDS011;1094;49.902;10.876;2022-10-28T13:30:14;5.50;;;3.50;;
2175;SDS011;1094;49.902;10.876;2022-10-28T13:32:41;8.80;;;3.20;;
2175;SDS011;1094;49.902;10.876;2022-10-28T13:37:36;6.83;;;3.13;;
2175;SDS011;1094;49.902;10.876;2022-10-28T13:40:04;9.03;;;3.40;;
2175;SDS011;1094;49.902;10.876;2022-10-28T13:42:31;6.70;;;3.70;;
2175;SDS011;1094;49.902;10.876;2022-10-28T13:45:42;10.07;;;3.17;;
2175;SDS011;1094;49.902;10.876;2022-10-28T13:48:26;7.50;;;3.20;;
2175;SDS011;1094;49.902;10.876;2022-10-28T13:50:39;9.93;;;3.73;;
2175;SDS011;1094;49.902;10.876;2022-10-28T13:53:34;6.63;;;3.17;;
2175;SDS011;1094;49.902;10.876;2022-10-28T13:56:04;3.53;;;3.10;;
2175;SDS011;1094;49.902;10.876;2022-10-28T13:58:36;6.10;;;4.77;;
2175;SDS011;1094;49.902;10.876;2022-10-28T14:01:34;10.23;;;3.27;;
2175;SDS011;1094;49.902;10.876;2022-10-28T14:03:56;4.60;;;3.20;;
2175;SDS011;1094;49.902;10.876;2022-10-28T14:06:29;7.90;;;3.70;;
2175;SDS011;1094;49.902;10.876;2022-10-28T14:08:55;4.33;;;3.53;;
2175;SDS011;1094;49.902;10.876;2022-10-28T14:11:22;7.60;;;3.50;;
2175;SDS011;1094;49.902;10.876;2022-10-28T14:13:50;6.20;;;3.93;;
2175;SDS011;1094;49.902;10.876;2022-10-28T14:22:09;4.67;;;3.20;;
2175;SDS011;1094;49.902;10.876;2022-10-28T14:24:30;5.77;;;3.53;;
2175;SDS011;1094;49.902;10.876;2022-10-28T14:29:42;4.47;;;2.83;;
2175;SDS011;1094;49.902;10.876;2022-10-28T14:34:53;6.30;;;3.00;;
2175;SDS011;1094;49.902;10.876;2022-10-28T14:42:55;3.60;;;2.70;;
2175;SDS011;1094;49.902;10.876;2022-10-28T14:45:33;9.20;;;3.13;;
2175;SDS011;1094;49.902;10.876;2022-10-28T14:48:06;5.53;;;3.70;;
2175;SDS011;1094;49.902;10.876;2022-10-28T14:50:44;7.03;;;3.50;;
2175;SDS011;1094;49.902;10.876;2022-10-28T14:53:17;5.53;;;2.83;;
2175;SDS011;1094;49.902;10.876;2022-10-28T14:55:45;7.33;;;3.53;;
2175;SDS011;1094;49.902;10.876;2022-10-28T14:58:19;5.70;;;3.13;;
2175;SDS011;1094;49.902;10.876;2022-10-28T15:00:51;4.57;;;3.50;;
2175;SDS011;1094;49.902;10.876;2022-10-28T15:03:19;8.10;;;4.00;;
2175;SDS011;1094;49.902;10.876;2022-10-28T15:05:45;9.30;;;3.43;;
2175;SDS011;1094;49.902;10.876;2022-10-28T15:08:11;5.70;;;3.45;;
2175;SDS011;1094;49.902;10.876;2022-10-28T15:10:37;8.17;;;3.73;;
2175;SDS011;1094;49.902;10.876;2022-10-28T15:13:04;8.80;;;4.20;;
2175;SDS011;1094;49.902;10.876;2022-10-28T15:15:31;8.50;;;5.43;;
2175;SDS011;1094;49.902;10.876;2022-10-28T15:18:00;6.23;;;3.57;;
2175;SDS011;1094;49.902;10.876;2022-10-28T15:20:27;7.03;;;3.80;;
2175;SDS011;1094;49.902;10.876;2022-10-28T15:23:09;12.40;;;4.20;;
2175;SDS011;1094;49.902;10.876;2022-10-28T15:25:35;8.80;;;4.40;;
2175;SDS011;1094;49.902;10.876;2022-10-28T15:28:01;6.00;;;4.30;;
2175;SDS011;1094;49.902;10.876;2022-10-28T15:30:27;8.27;;;4.20;;
2175;SDS011;1094;49.902;10.876;2022-10-28T15:32:53;7.60;;;3.60;;
2175;SDS011;1094;49.902;10.876;2022-10-28T15:37:51;17.63;;;6.83;;
2175;SDS011;1094;49.902;10.876;2022-10-28T15:40:19;10.50;;;5.10;;
2175;SDS011;1094;49.902;10.876;2022-10-28T15:42:50;6.97;;;3.80;;
2175;SDS011;1094;49.902;10.876;2022-10-28T15:45:19;6.93;;;4.70;;
2175;SDS011;1094;49.902;10.876;2022-10-28T15:47:47;9.77;;;5.27;;
2175;SDS011;1094;49.902;10.876;2022-10-28T15:52:40;5.23;;;4.30;;
2175;SDS011;1094;49.902;10.876;2022-10-28T15:57:48;8.10;;;4.43;;
2175;SDS011;1094;49.902;10.876;2022-10-28T16:02:50;6.43;;;3.30;;
2175;SDS011;1094;49.902;10.876;2022-10-28T16:07:57;7.37;;;3.90;;
2175;SDS011;1094;49.902;10.876;2022-10-28T16:10:24;9.77;;;6.17;;
2175;SDS011;1094;49.902;10.876;2022-10-28T16:12:52;24.27;;;13.40;;
2175;SDS011;1094;49.902;10.876;2022-10-28T16:15:18;15.60;;;13.10;;
2175;SDS011;1094;49.902;10.876;2022-10-28T16:17:45;16.93;;;11.00;;
2175;SDS011;1094;49.902;10.876;2022-10-28T16:20:12;8.17;;;5.80;;
2175;SDS011;1094;49.902;10.876;2022-10-28T16:22:38;15.00;;;9.77;;
2175;SDS011;1094;49.902;10.876;2022-10-28T16:25:10;16.17;;;11.37;;
2175;SDS011;1094;49.902;10.876;2022-10-28T16:27:37;13.03;;;9.33;;
2175;SDS011;1094;49.902;10.876;2022-10-28T16:30:03;13.00;;;8.53;;
2175;SDS011;1094;49.902;10.876;2022-10-28T16:32:33;12.40;;;6.90;;
2175;SDS011;1094;49.902;10.876;2022-10-28T16:34:59;10.63;;;6.70;;
2175;SDS011;1094;49.902;10.876;2022-10-28T16:37:26;10.27;;;7.03;;
2175;SDS011;1094;49.902;10.876;2022-10-28T16:39:52;15.17;;;8.20;;
2175;SDS011;1094;49.902;10.876;2022-10-28T16:42:19;11.00;;;8.03;;
2175;SDS011;1094;49.902;10.876;2022-10-28T16:44:45;15.53;;;9.60;;
2175;SDS011;1094;49.902;10.876;2022-10-28T16:47:11;15.40;;;7.30;;
2175;SDS011;1094;49.902;10.876;2022-10-28T16:49:38;9.37;;;6.77;;
2175;SDS011;1094;49.902;10.876;2022-10-28T16:52:04;11.93;;;6.90;;
2175;SDS011;1094;49.902;10.876;2022-10-28T16:54:31;14.23;;;5.90;;
2175;SDS011;1094;49.902;10.876;2022-10-28T16:56:57;12.37;;;7.50;;
2175;SDS011;1094;49.902;10.876;2022-10-28T16:59:23;8.73;;;5.90;;
2175;SDS011;1094;49.902;10.876;2022-10-28T17:01:49;9.43;;;6.67;;
2175;SDS011;1094;49.902;10.876;2022-10-28T17:04:15;11.23;;;6.30;;
2175;SDS011;1094;49.902;10.876;2022-10-28T17:06:41;7.80;;;5.70;;
2175;SDS011;1094;49.902;10.876;2022-10-28T17:09:07;8.93;;;6.10;;
2175;SDS011;1094;49.902;10.876;2022-10-28T17:11:33;9.97;;;6.70;;
2175;SDS011;1094;49.902;10.876;2022-10-28T17:13:59;8.90;;;6.13;;
2175;SDS011;1094;49.902;10.876;2022-10-28T17:16:25;12.77;;;6.93;;
2175;SDS011;1094;49.902;10.876;2022-10-28T17:18:51;12.73;;;7.53;;
2175;SDS011;1094;49.902;10.876;2022-10-28T17:21:17;9.53;;;6.50;;
2175;SDS011;1094;49.902;10.876;2022-10-28T17:23:43;9.00;;;6.57;;
2175;SDS011;1094;49.902;10.876;2022-10-28T17:26:09;16.03;;;7.33;;
2175;SDS011;1094;49.902;10.876;2022-10-28T17:28:35;11.10;;;6.87;;
2175;SDS011;1094;49.902;10.876;2022-10-28T17:31:01;10.10;;;6.57;;
2175;SDS011;1094;49.902;10.876;2022-10-28T17:33:27;9.50;;;6.50;;
2175;SDS011;1094;49.902;10.876;2022-10-28T17:35:53;9.23;;;6.37;;